sensor_id;sensor_type;location;lat;lon;timestamp;temperature;humidity
16172;DHT22;8192;53.596;10.166;2022-10-19T00:01:20;10.10;99.90
16172;DHT22;8192;53.596;10.166;2022-10-19T00:03:49;10.00;99.90
16172;DHT22;8192;53.596;10.166;2022-10-19T00:06:18;10.00;99.90
16172;DHT22;8192;53.596;10.166;2022-10-19T00:08:51;10.10;99.90
16172;DHT22;8192;53.596;10.166;2022-10-19T00:11:19;10.10;99.90
16172;DHT22;8192;53.596;10.166;2022-10-19T00:13:48;10.10;99.90
16172;DHT22;8192;53.596;10.166;2022-10-19T00:16:15;10.20;99.90
16172;DHT22;8192;53.596;10.166;2022-10-19T00:18:44;10.20;99.90
16172;DHT22;8192;53.596;10.166;2022-10-19T00:21:15;10.20;99.90
16172;DHT22;8192;53.596;10.166;2022-10-19T00:23:43;10.30;99.90
16172;DHT22;8192;53.596;10.166;2022-10-19T00:26:12;10.30;99.90
16172;DHT22;8192;53.596;10.166;2022-10-19T00:28:40;10.30;99.90
16172;DHT22;8192;53.596;10.166;2022-10-19T00:31:09;10.40;99.90
16172;DHT22;8192;53.596;10.166;2022-10-19T00:33:36;10.40;99.90
16172;DHT22;8192;53.596;10.166;2022-10-19T00:36:04;10.40;99.90
16172;DHT22;8192;53.596;10.166;2022-10-19T00:38:32;10.40;99.90
16172;DHT22;8192;53.596;10.166;2022-10-19T00:40:59;10.40;99.90
16172;DHT22;8192;53.596;10.166;2022-10-19T00:43:29;10.40;99.90
16172;DHT22;8192;53.596;10.166;2022-10-19T00:45:57;12.20;99.90
16172;DHT22;8192;53.596;10.166;2022-10-19T00:48:27;10.50;99.90
16172;DHT22;8192;53.596;10.166;2022-10-19T00:50:57;10.70;99.90
16172;DHT22;8192;53.596;10.166;2022-10-19T00:53:26;10.50;99.90
16172;DHT22;8192;53.596;10.166;2022-10-19T00:55:55;10.50;99.90
16172;DHT22;8192;53.596;10.166;2022-10-19T00:58:25;10.50;99.90
16172;DHT22;8192;53.596;10.166;2022-10-19T01:00:54;10.50;99.90
16172;DHT22;8192;53.596;10.166;2022-10-19T01:03:22;10.60;99.90
16172;DHT22;8192;53.596;10.166;2022-10-19T01:05:50;10.50;99.90
16172;DHT22;8192;53.596;10.166;2022-10-19T01:08:40;10.50;99.90
16172;DHT22;8192;53.596;10.166;2022-10-19T01:11:21;10.60;99.90
16172;DHT22;8192;53.596;10.166;2022-10-19T01:13:57;10.60;99.90
16172;DHT22;8192;53.596;10.166;2022-10-19T01:16:40;10.60;99.90
16172;DHT22;8192;53.596;10.166;2022-10-19T01:19:25;10.60;99.90
16172;DHT22;8192;53.596;10.166;2022-10-19T01:22:02;10.70;99.90
16172;DHT22;8192;53.596;10.166;2022-10-19T01:24:51;10.70;99.90
16172;DHT22;8192;53.596;10.166;2022-10-19T01:27:52;10.70;99.90
16172;DHT22;8192;53.596;10.166;2022-10-19T01:30:46;10.70;99.90
16172;DHT22;8192;53.596;10.166;2022-10-19T01:33:27;10.70;99.90
16172;DHT22;8192;53.596;10.166;2022-10-19T01:36:03;10.70;99.90
16172;DHT22;8192;53.596;10.166;2022-10-19T01:38:36;10.60;99.90
16172;DHT22;8192;53.596;10.166;2022-10-19T01:41:13;10.70;99.90
16172;DHT22;8192;53.596;10.166;2022-10-19T01:43:45;10.70;99.90
16172;DHT22;8192;53.596;10.166;2022-10-19T01:46:20;10.70;99.90
16172;DHT22;8192;53.596;10.166;2022-10-19T01:48:53;10.70;99.90
16172;DHT22;8192;53.596;10.166;2022-10-19T01:51:27;10.70;99.90
16172;DHT22;8192;53.596;10.166;2022-10-19T01:53:58;10.70;99.90
16172;DHT22;8192;53.596;10.166;2022-10-19T01:56:27;10.70;99.90
16172;DHT22;8192;53.596;10.166;2022-10-19T01:58:57;10.70;99.90
16172;DHT22;8192;53.596;10.166;2022-10-19T02:01:33;10.70;99.90
16172;DHT22;8192;53.596;10.166;2022-10-19T02:04:01;10.70;99.90
16172;DHT22;8192;53.596;10.166;2022-10-19T02:06:29;10.70;99.90
16172;DHT22;8192;53.596;10.166;2022-10-19T02:08:56;10.70;99.90
16172;DHT22;8192;53.596;10.166;2022-10-19T02:15:02;10.60;99.90
16172;DHT22;8192;53.596;10.166;2022-10-19T02:17:35;10.60;99.90
16172;DHT22;8192;53.596;10.166;2022-10-19T02:20:05;10.60;99.90
16172;DHT22;8192;53.596;10.166;2022-10-19T02:22:33;10.50;99.90
16172;DHT22;8192;53.596;10.166;2022-10-19T02:25:16;10.50;99.90
16172;DHT22;8192;53.596;10.166;2022-10-19T02:27:43;10.40;99.90
16172;DHT22;8192;53.596;10.166;2022-10-19T02:30:13;10.30;99.90
16172;DHT22;8192;53.596;10.166;2022-10-19T02:32:44;10.20;99.90
16172;DHT22;8192;53.596;10.166;2022-10-19T02:35:12;10.30;99.90
16172;DHT22;8192;53.596;10.166;2022-10-19T02:37:41;10.30;99.90
16172;DHT22;8192;53.596;10.166;2022-10-19T02:40:17;10.30;99.90
16172;DHT22;8192;53.596;10.166;2022-10-19T02:42:47;10.30;99.90
16172;DHT22;8192;53.596;10.166;2022-10-19T02:45:18;10.30;99.90
16172;DHT22;8192;53.596;10.166;2022-10-19T02:47:53;10.40;99.90
16172;DHT22;8192;53.596;10.166;2022-10-19T02:50:20;10.40;99.90
16172;DHT22;8192;53.596;10.166;2022-10-19T02:52:48;10.40;99.90
16172;DHT22;8192;53.596;10.166;2022-10-19T02:55:15;10.40;99.90
16172;DHT22;8192;53.596;10.166;2022-10-19T02:57:41;10.40;99.90
16172;DHT22;8192;53.596;10.166;2022-10-19T03:00:10;10.40;99.90
16172;DHT22;8192;53.596;10.166;2022-10-19T03:02:38;10.40;99.90
16172;DHT22;8192;53.596;10.166;2022-10-19T03:05:08;10.40;99.90
16172;DHT22;8192;53.596;10.166;2022-10-19T03:07:40;10.40;99.90
16172;DHT22;8192;53.596;10.166;2022-10-19T03:10:08;10.40;99.90
16172;DHT22;8192;53.596;10.166;2022-10-19T03:12:35;10.40;99.90
16172;DHT22;8192;53.596;10.166;2022-10-19T03:15:04;10.40;99.90
16172;DHT22;8192;53.596;10.166;2022-10-19T03:17:32;10.40;99.90
16172;DHT22;8192;53.596;10.166;2022-10-19T03:20:00;10.70;99.90
16172;DHT22;8192;53.596;10.166;2022-10-19T03:22:33;10.50;99.90
16172;DHT22;8192;53.596;10.166;2022-10-19T03:25:07;10.50;99.90
16172;DHT22;8192;53.596;10.166;2022-10-19T03:27:35;10.50;99.90
16172;DHT22;8192;53.596;10.166;2022-10-19T03:30:03;12.20;99.90
16172;DHT22;8192;53.596;10.166;2022-10-19T03:32:31;10.50;99.90
16172;DHT22;8192;53.596;10.166;2022-10-19T03:34:59;10.50;99.90
16172;DHT22;8192;53.596;10.166;2022-10-19T03:37:28;10.60;99.90
16172;DHT22;8192;53.596;10.166;2022-10-19T03:39:55;10.50;99.90
16172;DHT22;8192;53.596;10.166;2022-10-19T03:42:23;11.40;99.90
16172;DHT22;8192;53.596;10.166;2022-10-19T03:44:50;10.60;99.90
16172;DHT22;8192;53.596;10.166;2022-10-19T03:47:17;10.60;99.90
16172;DHT22;8192;53.596;10.166;2022-10-19T03:49:46;10.50;99.90
16172;DHT22;8192;53.596;10.166;2022-10-19T03:52:16;10.50;99.90
16172;DHT22;8192;53.596;10.166;2022-10-19T03:54:50;10.50;99.90
16172;DHT22;8192;53.596;10.166;2022-10-19T03:57:17;10.50;99.90
16172;DHT22;8192;53.596;10.166;2022-10-19T03:59:44;10.50;99.90
16172;DHT22;8192;53.596;10.166;2022-10-19T04:02:11;10.50;99.90
16172;DHT22;8192;53.596;10.166;2022-10-19T04:04:38;10.60;99.90
16172;DHT22;8192;53.596;10.166;2022-10-19T04:07:05;10.50;99.90
16172;DHT22;8192;53.596;10.166;2022-10-19T04:09:32;10.50;99.90
16172;DHT22;8192;53.596;10.166;2022-10-19T04:12:02;10.50;99.90
16172;DHT22;8192;53.596;10.166;2022-10-19T04:14:29;10.50;99.90
16172;DHT22;8192;53.596;10.166;2022-10-19T04:19:54;10.40;99.90
16172;DHT22;8192;53.596;10.166;2022-10-19T04:22:21;10.40;99.90
16172;DHT22;8192;53.596;10.166;2022-10-19T04:24:48;10.40;99.90
16172;DHT22;8192;53.596;10.166;2022-10-19T04:27:19;10.40;99.90
16172;DHT22;8192;53.596;10.166;2022-10-19T04:29:46;10.50;99.90
16172;DHT22;8192;53.596;10.166;2022-10-19T04:32:15;10.40;99.90
16172;DHT22;8192;53.596;10.166;2022-10-19T04:34:42;10.50;99.90
16172;DHT22;8192;53.596;10.166;2022-10-19T04:37:18;10.40;99.90
16172;DHT22;8192;53.596;10.166;2022-10-19T04:39:45;10.40;99.90
16172;DHT22;8192;53.596;10.166;2022-10-19T04:42:12;10.40;99.90
16172;DHT22;8192;53.596;10.166;2022-10-19T04:44:41;10.30;99.90
16172;DHT22;8192;53.596;10.166;2022-10-19T04:47:08;10.40;99.90
16172;DHT22;8192;53.596;10.166;2022-10-19T04:49:35;10.40;99.90
16172;DHT22;8192;53.596;10.166;2022-10-19T04:52:03;10.40;99.90
16172;DHT22;8192;53.596;10.166;2022-10-19T04:54:30;10.40;99.90
16172;DHT22;8192;53.596;10.166;2022-10-19T04:56:57;10.40;99.90
16172;DHT22;8192;53.596;10.166;2022-10-19T04:59:25;10.40;99.90
16172;DHT22;8192;53.596;10.166;2022-10-19T05:01:57;10.40;99.90
16172;DHT22;8192;53.596;10.166;2022-10-19T05:04:24;10.40;99.90
16172;DHT22;8192;53.596;10.166;2022-10-19T05:06:51;10.40;99.90
16172;DHT22;8192;53.596;10.166;2022-10-19T05:09:19;10.30;99.90
16172;DHT22;8192;53.596;10.166;2022-10-19T05:11:48;10.30;99.90
16172;DHT22;8192;53.596;10.166;2022-10-19T05:14:15;10.50;99.90
16172;DHT22;8192;53.596;10.166;2022-10-19T05:16:42;10.40;99.90
16172;DHT22;8192;53.596;10.166;2022-10-19T05:19:12;10.50;99.90
16172;DHT22;8192;53.596;10.166;2022-10-19T05:21:39;10.40;99.90
16172;DHT22;8192;53.596;10.166;2022-10-19T05:24:06;10.30;99.90
16172;DHT22;8192;53.596;10.166;2022-10-19T05:26:33;10.30;99.90
16172;DHT22;8192;53.596;10.166;2022-10-19T05:29:00;10.30;99.90
16172;DHT22;8192;53.596;10.166;2022-10-19T05:31:32;10.30;99.90
16172;DHT22;8192;53.596;10.166;2022-10-19T05:33:59;10.40;99.90
16172;DHT22;8192;53.596;10.166;2022-10-19T05:36:31;10.40;99.90
16172;DHT22;8192;53.596;10.166;2022-10-19T05:39:02;10.30;99.90
16172;DHT22;8192;53.596;10.166;2022-10-19T05:41:29;10.40;99.90
16172;DHT22;8192;53.596;10.166;2022-10-19T05:43:58;10.90;99.90
16172;DHT22;8192;53.596;10.166;2022-10-19T05:46:27;10.40;99.90
16172;DHT22;8192;53.596;10.166;2022-10-19T05:48:57;10.40;99.90
16172;DHT22;8192;53.596;10.166;2022-10-19T05:51:26;10.70;99.90
16172;DHT22;8192;53.596;10.166;2022-10-19T05:53:55;10.50;99.90
16172;DHT22;8192;53.596;10.166;2022-10-19T05:56:25;10.50;99.90
16172;DHT22;8192;53.596;10.166;2022-10-19T05:58:57;10.50;99.90
16172;DHT22;8192;53.596;10.166;2022-10-19T06:01:34;10.50;99.90
16172;DHT22;8192;53.596;10.166;2022-10-19T06:04:03;10.50;99.90
16172;DHT22;8192;53.596;10.166;2022-10-19T06:06:31;10.50;99.90
16172;DHT22;8192;53.596;10.166;2022-10-19T06:09:03;10.50;99.90
16172;DHT22;8192;53.596;10.166;2022-10-19T06:11:34;10.50;99.90
16172;DHT22;8192;53.596;10.166;2022-10-19T06:14:05;10.50;99.90
16172;DHT22;8192;53.596;10.166;2022-10-19T06:16:37;10.50;99.90
16172;DHT22;8192;53.596;10.166;2022-10-19T06:19:05;10.50;99.90
16172;DHT22;8192;53.596;10.166;2022-10-19T06:21:34;10.50;99.90
16172;DHT22;8192;53.596;10.166;2022-10-19T06:24:04;10.30;99.90
16172;DHT22;8192;53.596;10.166;2022-10-19T06:26:33;10.30;99.90
16172;DHT22;8192;53.596;10.166;2022-10-19T06:29:05;10.10;99.90
16172;DHT22;8192;53.596;10.166;2022-10-19T06:31:34;10.00;99.90
16172;DHT22;8192;53.596;10.166;2022-10-19T06:34:03;9.90;99.90
16172;DHT22;8192;53.596;10.166;2022-10-19T06:36:31;9.80;99.90
16172;DHT22;8192;53.596;10.166;2022-10-19T06:38:59;9.80;99.90
16172;DHT22;8192;53.596;10.166;2022-10-19T06:41:29;9.60;99.90
16172;DHT22;8192;53.596;10.166;2022-10-19T06:43:56;9.60;99.90
16172;DHT22;8192;53.596;10.166;2022-10-19T06:46:25;9.50;99.90
16172;DHT22;8192;53.596;10.166;2022-10-19T06:48:54;9.50;99.90
16172;DHT22;8192;53.596;10.166;2022-10-19T06:51:26;9.50;99.90
16172;DHT22;8192;53.596;10.166;2022-10-19T06:53:54;9.60;99.90
16172;DHT22;8192;53.596;10.166;2022-10-19T06:56:22;9.60;99.90
16172;DHT22;8192;53.596;10.166;2022-10-19T06:58:51;9.70;99.90
16172;DHT22;8192;53.596;10.166;2022-10-19T07:01:32;9.80;99.90
16172;DHT22;8192;53.596;10.166;2022-10-19T07:03:59;10.10;99.90
16172;DHT22;8192;53.596;10.166;2022-10-19T07:06:27;10.10;99.90
16172;DHT22;8192;53.596;10.166;2022-10-19T07:08:54;10.20;99.90
16172;DHT22;8192;53.596;10.166;2022-10-19T07:11:23;10.40;99.90
16172;DHT22;8192;53.596;10.166;2022-10-19T07:13:53;10.50;99.90
16172;DHT22;8192;53.596;10.166;2022-10-19T07:16:20;10.70;99.90
16172;DHT22;8192;53.596;10.166;2022-10-19T07:18:59;10.90;99.90
16172;DHT22;8192;53.596;10.166;2022-10-19T07:21:26;11.00;99.90
16172;DHT22;8192;53.596;10.166;2022-10-19T07:24:06;11.00;99.90
16172;DHT22;8192;53.596;10.166;2022-10-19T07:26:33;11.10;99.90
16172;DHT22;8192;53.596;10.166;2022-10-19T07:29:04;11.20;99.90
16172;DHT22;8192;53.596;10.166;2022-10-19T07:31:31;11.20;99.90
16172;DHT22;8192;53.596;10.166;2022-10-19T07:34:00;11.30;99.90
16172;DHT22;8192;53.596;10.166;2022-10-19T07:36:31;11.30;99.90
16172;DHT22;8192;53.596;10.166;2022-10-19T07:39:00;11.00;99.90
16172;DHT22;8192;53.596;10.166;2022-10-19T07:41:31;11.40;99.90
16172;DHT22;8192;53.596;10.166;2022-10-19T07:44:00;11.30;99.90
16172;DHT22;8192;53.596;10.166;2022-10-19T07:46:33;11.40;99.90
16172;DHT22;8192;53.596;10.166;2022-10-19T07:49:03;12.20;99.90
16172;DHT22;8192;53.596;10.166;2022-10-19T07:51:32;11.60;99.90
16172;DHT22;8192;53.596;10.166;2022-10-19T07:53:59;11.50;99.90
16172;DHT22;8192;53.596;10.166;2022-10-19T07:56:27;11.60;99.90
16172;DHT22;8192;53.596;10.166;2022-10-19T07:58:56;13.00;99.90
16172;DHT22;8192;53.596;10.166;2022-10-19T08:01:25;11.70;99.90
16172;DHT22;8192;53.596;10.166;2022-10-19T08:03:57;11.70;99.90
16172;DHT22;8192;53.596;10.166;2022-10-19T08:06:26;11.70;99.90
16172;DHT22;8192;53.596;10.166;2022-10-19T08:09:01;11.80;99.90
16172;DHT22;8192;53.596;10.166;2022-10-19T08:11:31;11.80;99.90
16172;DHT22;8192;53.596;10.166;2022-10-19T08:14:00;11.90;99.90
16172;DHT22;8192;53.596;10.166;2022-10-19T08:16:29;11.90;99.90
16172;DHT22;8192;53.596;10.166;2022-10-19T08:19:00;12.90;99.90
16172;DHT22;8192;53.596;10.166;2022-10-19T08:21:28;13.00;99.90
16172;DHT22;8192;53.596;10.166;2022-10-19T08:23:56;11.10;99.90
16172;DHT22;8192;53.596;10.166;2022-10-19T08:26:24;12.70;99.90
16172;DHT22;8192;53.596;10.166;2022-10-19T08:28:52;12.40;99.90
16172;DHT22;8192;53.596;10.166;2022-10-19T08:31:21;13.80;99.90
16172;DHT22;8192;53.596;10.166;2022-10-19T08:33:49;12.20;99.90
16172;DHT22;8192;53.596;10.166;2022-10-19T08:36:22;12.30;99.90
16172;DHT22;8192;53.596;10.166;2022-10-19T08:38:49;14.30;99.90
16172;DHT22;8192;53.596;10.166;2022-10-19T08:41:21;13.00;99.90
16172;DHT22;8192;53.596;10.166;2022-10-19T08:44:02;13.30;99.90
16172;DHT22;8192;53.596;10.166;2022-10-19T08:46:38;13.40;99.90
16172;DHT22;8192;53.596;10.166;2022-10-19T08:49:08;13.40;99.90
16172;DHT22;8192;53.596;10.166;2022-10-19T08:51:41;13.30;99.90
16172;DHT22;8192;53.596;10.166;2022-10-19T08:54:14;14.70;99.90
16172;DHT22;8192;53.596;10.166;2022-10-19T08:56:47;13.10;99.90
16172;DHT22;8192;53.596;10.166;2022-10-19T08:59:24;13.20;99.90
16172;DHT22;8192;53.596;10.166;2022-10-19T09:01:54;13.30;99.90
16172;DHT22;8192;53.596;10.166;2022-10-19T09:04:25;13.40;99.90
16172;DHT22;8192;53.596;10.166;2022-10-19T09:07:18;13.50;99.90
16172;DHT22;8192;53.596;10.166;2022-10-19T09:09:49;13.50;99.90
16172;DHT22;8192;53.596;10.166;2022-10-19T09:12:18;13.40;99.90
16172;DHT22;8192;53.596;10.166;2022-10-19T09:14:56;13.20;99.90
16172;DHT22;8192;53.596;10.166;2022-10-19T09:17:23;12.40;99.90
16172;DHT22;8192;53.596;10.166;2022-10-19T09:19:51;13.20;99.90
16172;DHT22;8192;53.596;10.166;2022-10-19T09:22:24;13.30;99.90
16172;DHT22;8192;53.596;10.166;2022-10-19T09:24:56;13.30;99.90
16172;DHT22;8192;53.596;10.166;2022-10-19T09:27:35;13.40;99.90
16172;DHT22;8192;53.596;10.166;2022-10-19T09:30:08;13.50;99.90
16172;DHT22;8192;53.596;10.166;2022-10-19T09:32:42;13.40;99.90
16172;DHT22;8192;53.596;10.166;2022-10-19T09:35:19;13.40;99.90
16172;DHT22;8192;53.596;10.166;2022-10-19T09:37:50;13.30;99.90
16172;DHT22;8192;53.596;10.166;2022-10-19T09:40:28;13.30;99.90
16172;DHT22;8192;53.596;10.166;2022-10-19T09:42:56;13.50;99.90
16172;DHT22;8192;53.596;10.166;2022-10-19T09:45:39;13.50;99.90
16172;DHT22;8192;53.596;10.166;2022-10-19T09:48:17;13.50;99.90
16172;DHT22;8192;53.596;10.166;2022-10-19T09:50:50;13.40;99.90
16172;DHT22;8192;53.596;10.166;2022-10-19T09:53:31;13.20;99.90
16172;DHT22;8192;53.596;10.166;2022-10-19T09:56:02;13.10;99.90
16172;DHT22;8192;53.596;10.166;2022-10-19T09:58:32;13.00;99.90
16172;DHT22;8192;53.596;10.166;2022-10-19T10:01:29;12.80;99.90
16172;DHT22;8192;53.596;10.166;2022-10-19T10:04:04;12.90;99.90
16172;DHT22;8192;53.596;10.166;2022-10-19T10:06:32;12.80;99.90
16172;DHT22;8192;53.596;10.166;2022-10-19T10:09:02;12.80;99.90
16172;DHT22;8192;53.596;10.166;2022-10-19T10:11:32;12.80;99.90
16172;DHT22;8192;53.596;10.166;2022-10-19T10:14:09;12.90;99.90
16172;DHT22;8192;53.596;10.166;2022-10-19T10:16:43;13.10;99.90
16172;DHT22;8192;53.596;10.166;2022-10-19T10:19:13;13.50;99.90
16172;DHT22;8192;53.596;10.166;2022-10-19T10:21:46;13.70;99.90
16172;DHT22;8192;53.596;10.166;2022-10-19T10:24:23;13.80;99.90
16172;DHT22;8192;53.596;10.166;2022-10-19T10:26:52;13.80;99.90
16172;DHT22;8192;53.596;10.166;2022-10-19T10:29:24;13.70;99.90
16172;DHT22;8192;53.596;10.166;2022-10-19T10:31:54;13.60;99.90
16172;DHT22;8192;53.596;10.166;2022-10-19T10:34:30;13.50;99.90
16172;DHT22;8192;53.596;10.166;2022-10-19T10:36:58;13.40;99.90
16172;DHT22;8192;53.596;10.166;2022-10-19T10:39:27;13.30;99.90
16172;DHT22;8192;53.596;10.166;2022-10-19T10:41:58;13.30;99.90
16172;DHT22;8192;53.596;10.166;2022-10-19T10:44:26;13.20;99.90
16172;DHT22;8192;53.596;10.166;2022-10-19T10:46:57;13.70;99.90
16172;DHT22;8192;53.596;10.166;2022-10-19T10:49:29;13.90;99.90
16172;DHT22;8192;53.596;10.166;2022-10-19T10:52:00;13.10;99.90
16172;DHT22;8192;53.596;10.166;2022-10-19T10:54:32;13.20;99.90
16172;DHT22;8192;53.596;10.166;2022-10-19T10:57:13;13.20;99.90
16172;DHT22;8192;53.596;10.166;2022-10-19T10:59:50;13.20;99.90
16172;DHT22;8192;53.596;10.166;2022-10-19T11:02:34;12.90;99.90
16172;DHT22;8192;53.596;10.166;2022-10-19T11:05:11;12.70;99.90
16172;DHT22;8192;53.596;10.166;2022-10-19T11:07:43;12.50;99.90
16172;DHT22;8192;53.596;10.166;2022-10-19T11:10:22;11.40;99.90
16172;DHT22;8192;53.596;10.166;2022-10-19T11:13:01;12.50;99.90
16172;DHT22;8192;53.596;10.166;2022-10-19T11:15:33;13.90;99.90
16172;DHT22;8192;53.596;10.166;2022-10-19T11:18:12;14.40;99.90
16172;DHT22;8192;53.596;10.166;2022-10-19T11:20:46;13.60;99.90
16172;DHT22;8192;53.596;10.166;2022-10-19T11:26:23;13.90;99.90
16172;DHT22;8192;53.596;10.166;2022-10-19T11:29:01;14.10;99.90
16172;DHT22;8192;53.596;10.166;2022-10-19T11:31:40;15.30;99.90
16172;DHT22;8192;53.596;10.166;2022-10-19T11:34:23;14.70;99.90
16172;DHT22;8192;53.596;10.166;2022-10-19T11:40:21;13.10;99.90
16172;DHT22;8192;53.596;10.166;2022-10-19T11:43:02;13.00;99.90
16172;DHT22;8192;53.596;10.166;2022-10-19T11:46:08;12.80;99.90
16172;DHT22;8192;53.596;10.166;2022-10-19T11:52:00;12.70;99.90
16172;DHT22;8192;53.596;10.166;2022-10-19T11:58:02;12.50;99.90
16172;DHT22;8192;53.596;10.166;2022-10-19T12:04:21;13.60;99.90
16172;DHT22;8192;53.596;10.166;2022-10-19T12:07:01;12.40;99.90
16172;DHT22;8192;53.596;10.166;2022-10-19T12:09:39;13.50;99.90
16172;DHT22;8192;53.596;10.166;2022-10-19T12:12:27;13.50;99.90
16172;DHT22;8192;53.596;10.166;2022-10-19T12:18:34;13.20;99.90
16172;DHT22;8192;53.596;10.166;2022-10-19T12:21:41;12.90;99.90
16172;DHT22;8192;53.596;10.166;2022-10-19T12:24:13;12.90;99.90
16172;DHT22;8192;53.596;10.166;2022-10-19T12:26:46;14.10;99.90
16172;DHT22;8192;53.596;10.166;2022-10-19T12:29:18;13.10;99.90
16172;DHT22;8192;53.596;10.166;2022-10-19T12:31:58;13.20;99.90
16172;DHT22;8192;53.596;10.166;2022-10-19T12:34:35;13.40;99.90
16172;DHT22;8192;53.596;10.166;2022-10-19T12:37:26;13.50;99.90
16172;DHT22;8192;53.596;10.166;2022-10-19T12:40:01;13.70;99.90
16172;DHT22;8192;53.596;10.166;2022-10-19T12:42:33;14.10;99.90
16172;DHT22;8192;53.596;10.166;2022-10-19T12:45:19;13.60;99.90
16172;DHT22;8192;53.596;10.166;2022-10-19T12:48:15;13.60;99.90
16172;DHT22;8192;53.596;10.166;2022-10-19T12:51:12;13.50;99.90
16172;DHT22;8192;53.596;10.166;2022-10-19T12:53:42;13.50;99.90
16172;DHT22;8192;53.596;10.166;2022-10-19T12:56:16;13.50;99.90
16172;DHT22;8192;53.596;10.166;2022-10-19T12:58:49;13.60;99.90
16172;DHT22;8192;53.596;10.166;2022-10-19T13:01:20;13.50;99.90
16172;DHT22;8192;53.596;10.166;2022-10-19T13:03:51;13.40;99.90
16172;DHT22;8192;53.596;10.166;2022-10-19T13:06:32;13.50;99.90
16172;DHT22;8192;53.596;10.166;2022-10-19T13:09:02;13.50;99.90
16172;DHT22;8192;53.596;10.166;2022-10-19T13:11:30;13.50;99.90
16172;DHT22;8192;53.596;10.166;2022-10-19T13:14:04;13.80;99.90
16172;DHT22;8192;53.596;10.166;2022-10-19T13:16:56;13.60;99.90
16172;DHT22;8192;53.596;10.166;2022-10-19T13:20:01;13.60;99.90
16172;DHT22;8192;53.596;10.166;2022-10-19T13:23:35;13.60;99.90
16172;DHT22;8192;53.596;10.166;2022-10-19T13:26:22;13.50;99.90
16172;DHT22;8192;53.596;10.166;2022-10-19T13:28:53;13.40;99.90
16172;DHT22;8192;53.596;10.166;2022-10-19T13:31:45;13.40;99.90
16172;DHT22;8192;53.596;10.166;2022-10-19T13:34:14;13.40;99.90
16172;DHT22;8192;53.596;10.166;2022-10-19T13:36:58;13.50;99.90
16172;DHT22;8192;53.596;10.166;2022-10-19T13:39:27;13.40;99.90
16172;DHT22;8192;53.596;10.166;2022-10-19T13:41:55;13.40;99.90
16172;DHT22;8192;53.596;10.166;2022-10-19T13:44:25;13.50;99.90
16172;DHT22;8192;53.596;10.166;2022-10-19T13:47:28;13.50;99.90
16172;DHT22;8192;53.596;10.166;2022-10-19T13:50:05;13.70;99.90
16172;DHT22;8192;53.596;10.166;2022-10-19T13:52:50;13.90;99.90
16172;DHT22;8192;53.596;10.166;2022-10-19T13:55:47;13.60;99.90
16172;DHT22;8192;53.596;10.166;2022-10-19T13:58:31;13.60;99.90
16172;DHT22;8192;53.596;10.166;2022-10-19T14:01:10;13.60;99.90
16172;DHT22;8192;53.596;10.166;2022-10-19T14:03:56;13.50;99.90
16172;DHT22;8192;53.596;10.166;2022-10-19T14:06:27;13.50;99.90
16172;DHT22;8192;53.596;10.166;2022-10-19T14:09:43;13.40;99.90
16172;DHT22;8192;53.596;10.166;2022-10-19T14:12:20;13.30;99.90
16172;DHT22;8192;53.596;10.166;2022-10-19T14:14:49;13.20;99.90
16172;DHT22;8192;53.596;10.166;2022-10-19T14:17:19;12.90;99.90
16172;DHT22;8192;53.596;10.166;2022-10-19T14:19:51;12.80;99.90
16172;DHT22;8192;53.596;10.166;2022-10-19T14:22:26;12.60;99.90
16172;DHT22;8192;53.596;10.166;2022-10-19T14:25:03;12.40;99.90
16172;DHT22;8192;53.596;10.166;2022-10-19T14:27:32;12.20;99.90
16172;DHT22;8192;53.596;10.166;2022-10-19T14:30:00;12.10;99.90
16172;DHT22;8192;53.596;10.166;2022-10-19T14:32:28;12.00;99.90
16172;DHT22;8192;53.596;10.166;2022-10-19T14:35:02;12.00;99.90
16172;DHT22;8192;53.596;10.166;2022-10-19T14:37:30;12.10;99.90
16172;DHT22;8192;53.596;10.166;2022-10-19T14:40:03;12.20;99.90
16172;DHT22;8192;53.596;10.166;2022-10-19T14:42:38;12.30;99.90
16172;DHT22;8192;53.596;10.166;2022-10-19T14:45:13;12.30;99.90
16172;DHT22;8192;53.596;10.166;2022-10-19T14:47:53;12.30;99.90
16172;DHT22;8192;53.596;10.166;2022-10-19T14:50:23;12.30;99.90
16172;DHT22;8192;53.596;10.166;2022-10-19T14:52:56;12.30;99.90
16172;DHT22;8192;53.596;10.166;2022-10-19T14:55:28;12.20;99.90
16172;DHT22;8192;53.596;10.166;2022-10-19T14:58:02;12.10;99.90
16172;DHT22;8192;53.596;10.166;2022-10-19T15:03:55;12.20;99.90
16172;DHT22;8192;53.596;10.166;2022-10-19T15:06:26;12.00;99.90
16172;DHT22;8192;53.596;10.166;2022-10-19T15:08:57;13.30;99.90
16172;DHT22;8192;53.596;10.166;2022-10-19T15:11:42;11.80;99.90
16172;DHT22;8192;53.596;10.166;2022-10-19T15:14:25;11.80;99.90
16172;DHT22;8192;53.596;10.166;2022-10-19T15:16:56;11.60;99.90
16172;DHT22;8192;53.596;10.166;2022-10-19T15:19:30;11.50;99.90
16172;DHT22;8192;53.596;10.166;2022-10-19T15:22:17;11.50;99.90
16172;DHT22;8192;53.596;10.166;2022-10-19T15:24:57;11.50;99.90
16172;DHT22;8192;53.596;10.166;2022-10-19T15:27:32;11.40;99.90
16172;DHT22;8192;53.596;10.166;2022-10-19T15:30:03;11.30;99.90
16172;DHT22;8192;53.596;10.166;2022-10-19T15:32:34;11.10;99.90
16172;DHT22;8192;53.596;10.166;2022-10-19T15:35:07;10.90;99.90
16172;DHT22;8192;53.596;10.166;2022-10-19T15:37:36;10.90;99.90
16172;DHT22;8192;53.596;10.166;2022-10-19T15:40:09;10.90;99.90
16172;DHT22;8192;53.596;10.166;2022-10-19T15:42:38;10.90;99.90
16172;DHT22;8192;53.596;10.166;2022-10-19T15:45:31;11.00;99.90
16172;DHT22;8192;53.596;10.166;2022-10-19T15:50:58;10.90;99.90
16172;DHT22;8192;53.596;10.166;2022-10-19T15:53:31;10.60;99.90
16172;DHT22;8192;53.596;10.166;2022-10-19T15:55:59;10.40;99.90
16172;DHT22;8192;53.596;10.166;2022-10-19T15:58:26;10.10;99.90
16172;DHT22;8192;53.596;10.166;2022-10-19T16:00:54;9.70;99.90
16172;DHT22;8192;53.596;10.166;2022-10-19T16:03:32;9.50;99.90
16172;DHT22;8192;53.596;10.166;2022-10-19T16:05:59;9.20;99.90
16172;DHT22;8192;53.596;10.166;2022-10-19T16:08:31;9.00;99.90
16172;DHT22;8192;53.596;10.166;2022-10-19T16:10:59;8.90;99.90
16172;DHT22;8192;53.596;10.166;2022-10-19T16:13:26;8.70;99.90
16172;DHT22;8192;53.596;10.166;2022-10-19T16:16:02;8.50;99.90
16172;DHT22;8192;53.596;10.166;2022-10-19T16:18:30;8.40;99.90
16172;DHT22;8192;53.596;10.166;2022-10-19T16:20:57;8.20;99.90
16172;DHT22;8192;53.596;10.166;2022-10-19T16:23:26;8.00;99.90
16172;DHT22;8192;53.596;10.166;2022-10-19T16:25:55;7.90;99.90
16172;DHT22;8192;53.596;10.166;2022-10-19T16:28:24;7.90;99.90
16172;DHT22;8192;53.596;10.166;2022-10-19T16:31:20;7.80;99.90
16172;DHT22;8192;53.596;10.166;2022-10-19T16:33:48;7.60;99.90
16172;DHT22;8192;53.596;10.166;2022-10-19T16:36:15;7.50;99.90
16172;DHT22;8192;53.596;10.166;2022-10-19T16:38:58;7.40;99.90
16172;DHT22;8192;53.596;10.166;2022-10-19T16:41:26;7.30;99.90